createdAt,value
2022-08-07T00:00:25.650Z,19.80
2022-08-07T00:02:53.470Z,19.80
2022-08-07T00:05:23.749Z,19.80
2022-08-07T00:08:00.318Z,19.80
2022-08-07T00:10:31.556Z,19.80
2022-08-07T00:13:17.567Z,19.70
2022-08-07T00:15:52.087Z,19.80
2022-08-07T00:18:24.115Z,19.70
2022-08-07T00:21:01.726Z,19.70
2022-08-07T00:23:32.814Z,19.60
2022-08-07T00:26:12.890Z,19.60
2022-08-07T00:28:46.132Z,19.60
2022-08-07T00:31:22.403Z,19.60
2022-08-07T00:33:49.832Z,19.60
2022-08-07T00:36:17.000Z,19.60
2022-08-07T00:38:44.235Z,19.50
2022-08-07T00:41:14.970Z,19.60
2022-08-07T00:44:01.046Z,19.50
2022-08-07T00:46:31.033Z,19.50
2022-08-07T00:49:02.816Z,19.50
2022-08-07T00:51:56.978Z,19.50
2022-08-07T00:54:19.948Z,19.50
2022-08-07T00:56:49.809Z,19.50
2022-08-07T00:59:20.074Z,19.50
2022-08-07T01:01:59.993Z,19.40
2022-08-07T01:04:28.049Z,19.40
2022-08-07T01:06:57.582Z,19.40
2022-08-07T01:10:04.180Z,19.40
2022-08-07T01:12:30.197Z,19.40
2022-08-07T01:15:01.439Z,19.40
2022-08-07T01:17:32.518Z,19.40
2022-08-07T01:20:08.863Z,19.30
2022-08-07T01:22:41.483Z,19.30
2022-08-07T01:25:54.397Z,19.30
2022-08-07T01:28:02.457Z,19.20
2022-08-07T01:30:31.225Z,19.20
2022-08-07T01:32:58.760Z,18.80
2022-08-07T01:35:25.877Z,19.20
2022-08-07T01:38:12.793Z,19.10
2022-08-07T01:40:57.297Z,19.10
2022-08-07T01:43:27.387Z,19.00
2022-08-07T01:46:05.835Z,19.00
2022-08-07T01:48:35.991Z,19.00
2022-08-07T01:52:01.010Z,19.00
2022-08-07T01:54:11.600Z,19.00
2022-08-07T01:56:56.060Z,19.00
2022-08-07T01:59:43.950Z,18.90
2022-08-07T02:03:11.314Z,18.90
2022-08-07T02:05:47.574Z,18.90
2022-08-07T02:08:13.963Z,18.90
2022-08-07T02:10:55.009Z,18.90
2022-08-07T02:13:47.028Z,18.80
2022-08-07T02:16:12.186Z,18.80
2022-08-07T02:18:45.344Z,18.80
2022-08-07T02:21:16.619Z,18.80
2022-08-07T02:23:45.346Z,18.80
2022-08-07T02:26:32.587Z,18.70
2022-08-07T02:29:04.804Z,18.80
2022-08-07T02:31:33.213Z,18.70
2022-08-07T02:34:11.066Z,18.60
2022-08-07T02:36:41.392Z,18.70
2022-08-07T02:39:17.193Z,18.70
2022-08-07T02:41:58.756Z,18.70
2022-08-07T02:44:34.606Z,18.70
2022-08-07T02:47:04.226Z,18.70
2022-08-07T02:49:57.710Z,18.70
2022-08-07T02:52:31.157Z,18.70
2022-08-07T02:55:15.389Z,18.70
2022-08-07T02:58:03.016Z,18.70
2022-08-07T03:00:35.233Z,18.60
2022-08-07T03:03:07.464Z,18.60
2022-08-07T03:05:41.309Z,18.60
2022-08-07T03:08:10.100Z,18.60
2022-08-07T03:10:40.872Z,18.60
2022-08-07T03:13:19.513Z,18.50
2022-08-07T03:15:58.285Z,18.50
2022-08-07T03:18:34.944Z,18.40
2022-08-07T03:21:08.766Z,18.50
2022-08-07T03:24:25.803Z,18.50
2022-08-07T03:26:33.743Z,18.50
2022-08-07T03:29:11.105Z,18.50
2022-08-07T03:31:46.343Z,18.50
2022-08-07T03:34:22.629Z,18.50
2022-08-07T03:36:53.240Z,18.30
2022-08-07T03:39:56.616Z,18.40
2022-08-07T03:42:10.475Z,18.40
2022-08-07T03:44:39.577Z,18.30
2022-08-07T03:47:14.067Z,18.30
2022-08-07T03:49:52.132Z,18.30
2022-08-07T03:52:26.390Z,18.20
2022-08-07T03:55:07.090Z,18.20
2022-08-07T03:58:32.465Z,18.20
2022-08-07T04:00:29.372Z,18.20
2022-08-07T04:02:59.624Z,18.20
2022-08-07T04:05:40.925Z,18.20
2022-08-07T04:08:16.345Z,18.20
2022-08-07T04:10:54.304Z,18.20
2022-08-07T04:14:10.208Z,18.20
2022-08-07T04:16:31.370Z,18.20
2022-08-07T04:19:12.474Z,18.20
2022-08-07T04:21:47.966Z,18.10
2022-08-07T04:24:33.882Z,18.20
2022-08-07T04:27:03.160Z,18.20
2022-08-07T04:29:49.043Z,18.20
2022-08-07T04:32:18.778Z,18.20
2022-08-07T04:35:05.774Z,18.20
2022-08-07T04:37:52.902Z,18.30
2022-08-07T04:40:29.813Z,18.30
2022-08-07T04:43:01.243Z,18.30
2022-08-07T04:45:57.831Z,18.40
2022-08-07T04:49:24.703Z,18.40
2022-08-07T04:52:51.153Z,18.50
2022-08-07T04:58:13.072Z,18.60
2022-08-07T04:59:17.020Z,18.60
2022-08-07T05:02:05.782Z,18.70
2022-08-07T05:05:11.500Z,18.70
2022-08-07T05:08:08.417Z,18.80
2022-08-07T05:10:49.123Z,18.80
2022-08-07T05:14:55.448Z,18.90
2022-08-07T05:16:17.336Z,19.00
2022-08-07T05:18:59.056Z,19.00
2022-08-07T05:22:00.873Z,19.10
2022-08-07T05:24:20.807Z,19.20
2022-08-07T05:27:00.871Z,19.20
2022-08-07T05:29:39.091Z,19.30
2022-08-07T05:32:20.970Z,19.30
2022-08-07T05:34:49.926Z,19.40
2022-08-07T05:37:25.025Z,19.50
2022-08-07T05:40:13.877Z,19.70
2022-08-07T05:42:40.006Z,19.90
2022-08-07T05:45:25.838Z,20.10
2022-08-07T05:48:01.141Z,20.30
2022-08-07T05:50:32.246Z,20.50
2022-08-07T05:53:01.448Z,20.80
2022-08-07T05:56:02.379Z,21.10
2022-08-07T05:58:22.101Z,21.30
2022-08-07T06:01:10.650Z,21.50
2022-08-07T06:03:53.590Z,21.70
2022-08-07T06:06:29.602Z,21.90
2022-08-07T06:08:59.495Z,22.10
2022-08-07T06:11:27.242Z,22.20
2022-08-07T06:14:12.211Z,22.30
2022-08-07T06:16:50.422Z,22.40
2022-08-07T06:19:57.573Z,22.50
2022-08-07T06:22:11.693Z,22.60
2022-08-07T06:24:52.909Z,22.60
2022-08-07T06:27:43.795Z,22.70
2022-08-07T06:30:24.200Z,22.80
2022-08-07T06:33:01.465Z,22.90
2022-08-07T06:35:39.127Z,22.90
2022-08-07T06:38:20.279Z,23.00
2022-08-07T06:42:32.870Z,23.00
2022-08-07T07:51:19.954Z,23.50
2022-08-07T08:33:49.283Z,24.30
2022-08-07T08:36:25.629Z,24.30
2022-08-07T08:39:02.271Z,24.40
2022-08-07T08:42:03.650Z,24.40
2022-08-07T08:45:05.656Z,24.50
2022-08-07T08:47:52.784Z,24.50
2022-08-07T08:50:39.698Z,24.50
2022-08-07T08:53:38.282Z,24.60
2022-08-07T08:56:24.494Z,24.60
2022-08-07T08:59:20.585Z,24.70
2022-08-07T09:02:36.418Z,24.70
2022-08-07T09:05:36.942Z,24.80
2022-08-07T09:08:39.302Z,24.80
2022-08-07T09:11:13.971Z,24.80
2022-08-07T09:14:12.466Z,24.90
2022-08-07T09:16:50.080Z,24.90
2022-08-07T09:19:57.650Z,24.90
2022-08-07T09:24:30.717Z,25.00
2022-08-07T09:26:29.789Z,25.10
2022-08-07T09:30:05.533Z,25.10
2022-08-07T09:33:05.242Z,25.10
2022-08-07T09:36:14.521Z,25.20
2022-08-07T09:39:11.370Z,25.30
2022-08-07T09:42:33.547Z,25.40
2022-08-07T09:47:24.545Z,25.50
2022-08-07T09:48:29.715Z,25.50
2022-08-07T09:52:15.230Z,25.60
2022-08-07T09:54:29.790Z,25.70
2022-08-07T09:57:36.749Z,25.90
2022-08-07T10:00:18.786Z,25.90
2022-08-07T10:04:07.042Z,26.00
2022-08-07T10:06:55.725Z,26.10
2022-08-07T10:10:00.877Z,26.10
2022-08-07T10:13:54.878Z,26.10
2022-08-07T10:16:24.469Z,26.20
2022-08-07T10:19:19.257Z,26.20
2022-08-07T10:22:16.057Z,26.20
2022-08-07T10:25:07.731Z,26.20
2022-08-07T10:28:12.606Z,26.20
2022-08-07T10:31:11.295Z,26.30
2022-08-07T10:34:15.720Z,26.30
2022-08-07T10:37:48.259Z,26.30
2022-08-07T10:40:33.876Z,26.30
2022-08-07T10:43:37.828Z,26.30
2022-08-07T10:46:30.242Z,26.30
2022-08-07T10:49:14.736Z,26.50
2022-08-07T10:52:13.497Z,26.60
2022-08-07T10:55:02.022Z,26.70
2022-08-07T10:57:56.713Z,26.90
2022-08-07T11:00:39.630Z,27.00
2022-08-07T11:03:55.236Z,27.20
2022-08-07T11:06:47.870Z,27.30
2022-08-07T11:10:07.358Z,27.40
2022-08-07T11:12:35.523Z,27.50
2022-08-07T11:15:17.224Z,27.60
2022-08-07T11:18:03.771Z,27.70
2022-08-07T11:20:54.283Z,27.70
2022-08-07T11:24:05.810Z,27.70
2022-08-07T11:27:07.107Z,27.70
2022-08-07T11:30:18.559Z,27.70
2022-08-07T11:33:15.042Z,27.60
2022-08-07T11:36:13.466Z,27.50
2022-08-07T11:38:53.797Z,27.50
2022-08-07T11:42:02.439Z,27.40
2022-08-07T11:44:39.579Z,27.40
2022-08-07T11:47:56.053Z,27.40
2022-08-07T11:51:09.065Z,27.30
2022-08-07T11:54:22.172Z,27.20
2022-08-07T11:57:57.877Z,27.10
2022-08-07T12:00:40.484Z,27.10
2022-08-07T12:03:48.099Z,27.00
2022-08-07T12:07:00.064Z,27.00
2022-08-07T12:09:49.364Z,26.90
2022-08-07T12:12:28.342Z,26.90
2022-08-07T12:15:58.047Z,26.70
2022-08-07T12:18:37.028Z,26.70
2022-08-07T12:22:36.073Z,26.60
2022-08-07T12:26:05.559Z,26.60
2022-08-07T12:29:08.970Z,26.60
2022-08-07T12:32:04.681Z,26.60
2022-08-07T12:34:39.438Z,26.60
2022-08-07T12:37:16.931Z,26.60
2022-08-07T12:39:53.740Z,26.70
2022-08-07T12:42:28.545Z,26.60
2022-08-07T12:45:09.143Z,26.70
2022-08-07T12:47:44.689Z,26.70
2022-08-07T12:50:49.108Z,26.70
2022-08-07T12:54:03.357Z,26.80
2022-08-07T12:56:35.905Z,26.90
2022-08-07T12:59:08.177Z,27.00
2022-08-07T13:02:22.129Z,27.10
2022-08-07T13:06:03.676Z,27.30
2022-08-07T13:08:38.798Z,27.40
2022-08-07T13:12:03.480Z,27.60
2022-08-07T13:15:14.213Z,27.70
2022-08-07T13:18:26.152Z,27.90
2022-08-07T13:21:14.507Z,28.10
2022-08-07T13:24:29.138Z,28.20
2022-08-07T13:27:30.962Z,28.30
2022-08-07T13:30:19.510Z,28.30
2022-08-07T13:34:14.870Z,28.40
2022-08-07T13:36:42.133Z,28.50
2022-08-07T13:40:32.752Z,28.50
2022-08-07T13:42:26.197Z,28.60
2022-08-07T13:45:20.825Z,28.60
2022-08-07T13:48:07.839Z,28.60
2022-08-07T13:50:45.103Z,28.60
2022-08-07T13:53:26.376Z,28.50
2022-08-07T13:56:05.266Z,28.40
2022-08-07T13:58:57.845Z,28.30
2022-08-07T14:01:33.241Z,28.30
2022-08-07T14:04:23.014Z,28.20
2022-08-07T14:06:59.225Z,28.10
2022-08-07T14:10:02.406Z,28.10
2022-08-07T14:13:03.685Z,28.00
2022-08-07T14:15:43.897Z,27.90
2022-08-07T14:18:29.602Z,27.80
2022-08-07T14:22:03.013Z,27.70
2022-08-07T14:24:41.424Z,27.60
2022-08-07T14:28:09.144Z,27.50
2022-08-07T14:30:11.254Z,27.40
2022-08-07T14:32:55.742Z,27.30
2022-08-07T14:35:45.233Z,27.30
2022-08-07T14:38:30.681Z,27.20
2022-08-07T14:44:02.071Z,27.20
2022-08-07T14:46:51.676Z,27.10
2022-08-07T14:52:12.233Z,27.00
2022-08-07T14:54:44.856Z,27.00
2022-08-07T15:00:06.867Z,26.90
2022-08-07T15:02:37.262Z,26.90
2022-08-07T15:05:19.701Z,26.90
2022-08-07T15:07:52.363Z,26.90
2022-08-07T15:10:30.601Z,26.90
2022-08-07T15:13:15.623Z,26.80
2022-08-07T15:15:52.739Z,27.00
2022-08-07T15:18:34.871Z,27.00
2022-08-07T15:21:43.735Z,26.90
2022-08-07T15:27:20.592Z,27.00
2022-08-07T15:33:01.393Z,27.10
2022-08-07T15:38:51.399Z,27.20
2022-08-07T15:42:44.932Z,27.10
2022-08-07T15:44:18.987Z,27.20
2022-08-07T15:46:55.220Z,27.20
2022-08-07T15:52:30.473Z,27.30
2022-08-07T15:55:03.332Z,27.40
2022-08-07T15:57:47.422Z,27.40
2022-08-07T16:00:22.728Z,27.50
2022-08-07T16:03:21.593Z,27.60
2022-08-07T16:06:03.081Z,27.60
2022-08-07T16:08:38.229Z,27.70
2022-08-07T16:11:27.221Z,27.70
2022-08-07T16:14:11.796Z,27.80
2022-08-07T16:18:02.086Z,27.80
2022-08-07T16:20:38.553Z,27.80
2022-08-07T16:23:53.027Z,27.90
2022-08-07T16:26:38.534Z,27.90
2022-08-07T16:30:11.387Z,28.00
2022-08-07T16:32:46.238Z,28.00
2022-08-07T16:35:59.394Z,28.00
2022-08-07T16:39:01.140Z,28.00
2022-08-07T16:41:54.326Z,28.00
2022-08-07T16:45:14.968Z,28.00
2022-08-07T16:48:28.576Z,28.00
2022-08-07T16:51:57.858Z,28.00
2022-08-07T16:54:54.855Z,28.00
2022-08-07T16:58:02.754Z,27.90
2022-08-07T17:00:39.290Z,27.90
2022-08-07T17:03:17.736Z,27.90
2022-08-07T17:06:30.197Z,27.80
2022-08-07T17:10:05.486Z,27.80
2022-08-07T17:12:35.088Z,27.70
2022-08-07T17:15:15.706Z,27.60
2022-08-07T17:17:48.387Z,27.60
2022-08-07T17:20:30.019Z,27.50
2022-08-07T17:23:32.596Z,27.50
2022-08-07T17:26:30.735Z,27.50
2022-08-07T17:30:12.382Z,27.50
2022-08-07T17:32:28.317Z,27.50
2022-08-07T17:35:51.138Z,27.50
2022-08-07T17:38:32.085Z,27.60
2022-08-07T17:42:00.762Z,27.60
2022-08-07T17:44:14.689Z,27.70
2022-08-07T17:47:08.423Z,27.70
2022-08-07T17:49:58.658Z,27.70
2022-08-07T17:52:39.746Z,27.70
2022-08-07T17:55:14.176Z,27.70
2022-08-07T17:57:58.938Z,27.60
2022-08-07T18:00:48.547Z,27.60
2022-08-07T18:03:27.727Z,27.50
2022-08-07T18:06:09.509Z,27.40
2022-08-07T18:09:05.387Z,27.40
2022-08-07T18:12:16.599Z,27.30
2022-08-07T18:14:51.180Z,27.20
2022-08-07T18:18:46.224Z,27.10
2022-08-07T18:21:07.144Z,27.00
2022-08-07T18:23:57.252Z,26.90
2022-08-07T18:27:00.084Z,26.80
2022-08-07T18:30:31.390Z,26.70
2022-08-07T18:33:34.983Z,26.60
2022-08-07T18:36:32.751Z,26.50
2022-08-07T18:40:06.832Z,26.40
2022-08-07T18:43:04.628Z,26.30
2022-08-07T18:46:24.542Z,26.20
2022-08-07T18:50:31.422Z,26.10
2022-08-07T18:52:56.679Z,26.00
2022-08-07T18:56:16.462Z,25.90
2022-08-07T18:58:58.617Z,25.90
2022-08-07T19:02:32.787Z,25.70
2022-08-07T19:04:57.855Z,25.60
2022-08-07T19:07:59.281Z,25.60
2022-08-07T19:10:51.420Z,25.50
2022-08-07T19:13:33.569Z,25.40
2022-08-07T19:17:01.130Z,25.40
2022-08-07T19:19:35.944Z,25.30
2022-08-07T19:22:30.236Z,25.20
2022-08-07T19:25:05.678Z,25.20
2022-08-07T19:28:30.744Z,25.10
2022-08-07T19:30:56.025Z,25.00
2022-08-07T19:33:33.571Z,24.90
2022-08-07T19:36:04.021Z,24.90
2022-08-07T19:38:35.260Z,24.80
2022-08-07T19:41:44.612Z,24.80
2022-08-07T19:44:21.062Z,24.70
2022-08-07T19:46:57.834Z,24.70
2022-08-07T19:49:56.520Z,24.60
2022-08-07T19:52:18.155Z,24.60
2022-08-07T19:54:55.659Z,24.60
2022-08-07T19:58:00.786Z,24.50
2022-08-07T20:00:28.980Z,24.50
2022-08-07T20:03:03.788Z,24.50
2022-08-07T20:05:59.717Z,24.40
2022-08-07T20:08:30.600Z,24.40
2022-08-07T20:11:10.163Z,24.30
2022-08-07T20:13:53.703Z,24.30
2022-08-07T20:16:34.668Z,24.20
2022-08-07T20:19:10.471Z,24.20
2022-08-07T20:21:47.208Z,24.10
2022-08-07T20:24:28.792Z,24.10
2022-08-07T20:27:02.396Z,24.10
2022-08-07T20:29:47.723Z,24.00
2022-08-07T20:32:46.330Z,24.00
2022-08-07T20:35:26.074Z,24.00
2022-08-07T20:37:58.710Z,23.90
2022-08-07T20:40:37.347Z,23.90
2022-08-07T20:43:14.653Z,23.80
2022-08-07T20:46:27.148Z,23.80
2022-08-07T20:49:55.131Z,23.80
2022-08-07T20:51:36.018Z,23.70
2022-08-07T20:54:11.958Z,23.70
2022-08-07T20:56:46.266Z,23.60
2022-08-07T21:00:04.606Z,23.60
2022-08-07T21:02:36.245Z,23.60
2022-08-07T21:05:16.655Z,23.60
2022-08-07T21:07:49.910Z,23.60
2022-08-07T21:10:31.312Z,23.50
2022-08-07T21:13:03.052Z,23.50
2022-08-07T21:15:58.290Z,23.50
2022-08-07T21:18:33.833Z,23.40
2022-08-07T21:21:04.108Z,23.40
2022-08-07T21:23:51.587Z,23.40
2022-08-07T21:26:42.883Z,23.40
2022-08-07T21:29:23.597Z,23.30
2022-08-07T21:32:47.458Z,23.30
2022-08-07T21:35:34.938Z,23.30
2022-08-07T21:38:46.447Z,23.20
2022-08-07T21:41:37.876Z,23.20
2022-08-07T21:44:44.327Z,23.20
2022-08-07T21:47:50.217Z,23.10
2022-08-07T21:50:30.856Z,23.00
2022-08-07T21:53:09.405Z,23.00
2022-08-07T21:55:55.853Z,23.00
2022-08-07T21:59:00.209Z,23.00
2022-08-07T22:02:11.223Z,22.90
2022-08-07T22:04:51.179Z,22.90
2022-08-07T22:07:31.476Z,22.90
2022-08-07T22:10:06.659Z,22.90
2022-08-07T22:12:49.616Z,22.80
2022-08-07T22:16:38.948Z,22.80
2022-08-07T22:18:58.141Z,22.70
2022-08-07T22:22:04.927Z,22.70
2022-08-07T22:25:07.555Z,22.70
2022-08-07T22:28:08.422Z,22.60
2022-08-07T22:30:54.115Z,22.60
2022-08-07T22:33:53.247Z,22.60
2022-08-07T22:36:34.880Z,22.40
2022-08-07T22:39:51.656Z,22.40
2022-08-07T22:42:29.366Z,22.30
2022-08-07T22:45:02.489Z,22.30
2022-08-07T22:48:31.588Z,22.30
2022-08-07T22:51:15.461Z,22.20
2022-08-07T22:54:05.255Z,22.10
2022-08-07T22:56:57.634Z,22.10
2022-08-07T23:00:00.549Z,22.00
2022-08-07T23:03:29.911Z,22.00
2022-08-07T23:07:40.112Z,21.90
2022-08-07T23:11:17.945Z,21.90
2022-08-07T23:14:28.896Z,21.80
2022-08-07T23:17:32.683Z,21.80
2022-08-07T23:20:52.609Z,21.70
2022-08-07T23:24:06.464Z,21.70
2022-08-07T23:27:01.499Z,21.60
2022-08-07T23:30:38.709Z,21.50
2022-08-07T23:34:21.158Z,21.50
2022-08-07T23:36:38.145Z,21.50
2022-08-07T23:39:55.442Z,21.50
2022-08-07T23:43:17.549Z,21.50
2022-08-07T23:46:03.053Z,21.50
2022-08-07T23:49:15.838Z,21.40
2022-08-07T23:53:17.041Z,21.40
2022-08-07T23:54:59.424Z,21.30
2022-08-07T23:57:52.123Z,21.30
